Boise City, OK (73933)

9:34 PM CST on December 26, 2014 (GMT -0600)
RAWS UTE CANYON CO US | Change Station
CLOSE
Current Station
Personal Weather Station
Location: Campo, CO
Elevation: 4372 ft
Nearby Weather Stations

Elev 4372 ft 37.06 °N, 102.63 °W | Updated 35 minutes ago

Clear
Clear
20 °F
Feels Like 12 °F
N
6
Wind Variable Wind from NNW
Gusts 11.0 mph

Today
High -- | Low -- °F
--% Chance of Precip.
Yesterday
High -- | Low -- °F
Precip. -- in
8:01 AM 5:40 PM
Waxing Crescent, 32% visible
Pressure 30.17 in
Visibility 10.0 miles
Clouds Clear
Windchill 12 °F
Dew Point 16 °F
Humidity 86%
Rainfall 0.00 in
Snow Depth Not available.
UV 0 out of 12
Pollen 6.20 out of 12
Air Quality Not available.
Flu Activity Not available.
METAR KCAO 270255Z AUTO 34003KT 10SM CLR M08/M09 A3005 RMK AO2 SLP216 60000 I1000 I3000 T10781089 51029

More Conditions Fewer Conditions

Pressure 30.17 in
Visibility 10.0 miles
Clouds Clear
Windchill 12 °F
Dew Point 16 °F
Humidity 86%
Rainfall 0.00 in
Snow Depth Not available.
UV 0 out of 12
Pollen 6.20 out of 12
Air Quality Not available.
Flu Activity Not available.
METAR KCAO 270255Z AUTO 34003KT 10SM CLR M08/M09 A3005 RMK AO2 SLP216 60000 I1000 I3000 T10781089 51029

More Conditions Fewer Conditions

10-Day Weather Forecast

Almanac

Astronomy

Dec. 26, 2014 Rise Set
Actual Time
Civil Twilight
Nautical Twilight
Astronomical Twilight
Moon
Length of Visible Light
Length of Day
Tomorrow will be .
, % of the Moon is Illuminated

Today's Extremes

State Highs State Lows

Community

WunderPhotos

Upload Photos

1,780,829 photos uploaded!

WunderBlogs® & News

Nearby

Air Quality

  Air Quality AQ Index Pollutant
Not available.

Snow Depth

Station Depth Elevation

Earthquake Activity

City Distance Mag. Time & Date
Minimum magnitude displayed is 2.5.

Coastal Water Temperatures

Place Temperature

Nearby Weather Stations